createdAt,value
2018-10-12T00:04:39.729Z,83
2018-10-12T00:10:09.390Z,83
2018-10-12T00:15:39.163Z,83
2018-10-12T00:21:07.435Z,83
2018-10-12T00:26:36.226Z,83
2018-10-12T00:32:05.788Z,83
2018-10-12T00:37:34.140Z,83
2018-10-12T00:43:02.601Z,83
2018-10-12T00:48:36.184Z,82
2018-10-12T00:53:59.963Z,82
2018-10-12T00:59:33.281Z,82
2018-10-12T01:04:57.852Z,82
2018-10-12T01:10:26.649Z,82
2018-10-12T01:15:55.967Z,82
2018-10-12T01:21:24.546Z,82
2018-10-12T01:26:53.125Z,82
2018-10-12T01:32:21.923Z,82
2018-10-12T01:37:50.251Z,82
2018-10-12T01:43:18.831Z,82
2018-10-12T01:48:48.432Z,82
2018-10-12T01:54:16.955Z,82
2018-10-12T01:59:45.772Z,82
2018-10-12T02:05:20.397Z,82
2018-10-12T02:10:50.026Z,82
2018-10-12T02:16:13.514Z,82
2018-10-12T02:21:41.779Z,82
2018-10-12T02:27:11.359Z,82
2018-10-12T02:32:45.204Z,82
2018-10-12T02:38:08.495Z,82
2018-10-12T02:43:37.057Z,82
2018-10-12T02:49:06.665Z,82
2018-10-12T02:54:35.386Z,82
2018-10-12T03:00:04.981Z,82
2018-10-12T03:05:39.236Z,83
2018-10-12T03:11:02.717Z,83
2018-10-12T03:16:31.262Z,83
2018-10-12T03:22:00.813Z,83
2018-10-12T03:27:29.303Z,83
2018-10-12T03:32:58.767Z,83
2018-10-12T03:38:27.245Z,83
2018-10-12T03:43:55.802Z,83
2018-10-12T03:49:24.234Z,82
2018-10-12T03:54:53.981Z,82
2018-10-12T04:00:22.197Z,82
2018-10-12T04:05:56.861Z,82
2018-10-12T04:11:20.715Z,82
2018-10-12T04:16:48.716Z,82
2018-10-12T04:22:17.205Z,82
2018-10-12T04:27:46.937Z,82
2018-10-12T04:33:21.216Z,82
2018-10-12T04:38:45.972Z,83
2018-10-12T04:44:14.350Z,83
2018-10-12T04:49:42.605Z,83
2018-10-12T04:55:12.061Z,83
2018-10-12T05:00:40.510Z,83
2018-10-12T05:06:08.951Z,83
2018-10-12T05:11:42.660Z,83
2018-10-12T05:17:11.823Z,83
2018-10-12T05:22:40.273Z,83
2018-10-12T05:28:03.966Z,83
2018-10-12T05:33:37.146Z,83
2018-10-12T05:39:00.586Z,83
2018-10-12T05:44:30.000Z,83
2018-10-12T05:50:04.439Z,83
2018-10-12T05:55:27.865Z,83
2018-10-12T06:01:01.575Z,83
2018-10-12T06:06:24.881Z,83
2018-10-12T06:11:59.474Z,83
2018-10-12T06:17:23.597Z,83
2018-10-12T06:22:57.030Z,83
2018-10-12T06:28:20.872Z,83
2018-10-12T06:33:54.257Z,83
2018-10-12T06:39:18.406Z,83
2018-10-12T06:44:46.913Z,83
2018-10-12T06:50:16.317Z,83
2018-10-12T06:55:45.849Z,83
2018-10-12T07:01:15.522Z,83
2018-10-12T07:06:45.030Z,83
2018-10-12T07:12:18.313Z,83
2018-10-12T07:17:42.754Z,83
2018-10-12T07:23:12.291Z,83
2018-10-12T07:28:42.052Z,83
2018-10-12T07:34:10.357Z,83
2018-10-12T07:39:39.032Z,83
2018-10-12T07:45:07.432Z,83
2018-10-12T07:50:42.272Z,83
2018-10-12T07:56:06.553Z,83
2018-10-12T08:01:40.135Z,83
2018-10-12T08:07:04.988Z,83
2018-10-12T08:12:34.421Z,83
2018-10-12T08:18:08.934Z,83
2018-10-12T08:23:38.554Z,83
2018-10-12T08:29:08.393Z,83
2018-10-12T08:34:32.759Z,83
2018-10-12T08:40:02.522Z,83
2018-10-12T08:45:32.099Z,83
2018-10-12T08:51:00.717Z,83
2018-10-12T08:56:30.626Z,83
2018-10-12T09:01:59.051Z,83
2018-10-12T09:07:27.692Z,83
2018-10-12T09:12:56.356Z,83
2018-10-12T09:18:26.018Z,83
2018-10-12T09:23:54.752Z,83
2018-10-12T09:29:23.725Z,83
2018-10-12T09:34:57.481Z,83
2018-10-12T09:40:20.934Z,83
2018-10-12T09:45:54.936Z,83
2018-10-12T09:51:19.436Z,83
2018-10-12T09:56:54.232Z,83
2018-10-12T10:02:23.322Z,83
2018-10-12T10:07:47.943Z,83
2018-10-12T10:13:17.625Z,83
2018-10-12T10:18:46.703Z,83
2018-10-12T10:24:15.303Z,83
2018-10-12T10:29:49.152Z,83
2018-10-12T10:35:14.302Z,83
2018-10-12T10:40:42.898Z,83
2018-10-12T10:46:12.131Z,83
2018-10-12T10:51:41.687Z,83
2018-10-12T10:57:16.886Z,83
2018-10-12T11:02:46.601Z,83
2018-10-12T11:08:11.459Z,83
2018-10-12T11:13:40.636Z,83
2018-10-12T11:19:14.384Z,82
2018-10-12T11:24:43.386Z,82
2018-10-12T11:30:08.297Z,82
2018-10-12T11:35:38.284Z,82
2018-10-12T11:41:08.246Z,82
2018-10-12T11:46:37.224Z,82
2018-10-12T11:52:06.566Z,82
2018-10-12T11:57:35.278Z,82
2018-10-12T12:03:05.252Z,82
2018-10-12T12:08:35.386Z,81
2018-10-12T12:14:05.514Z,81
2018-10-12T12:19:34.361Z,81
2018-10-12T12:25:04.489Z,80
2018-10-12T12:30:33.739Z,80
2018-10-12T12:36:02.749Z,80
2018-10-12T12:41:33.033Z,80
2018-10-12T12:47:02.430Z,80
2018-10-12T12:52:31.897Z,80
2018-10-12T12:58:01.383Z,79
2018-10-12T13:03:31.382Z,79
2018-10-12T13:09:01.323Z,79
2018-10-12T13:14:31.668Z,79
2018-10-12T13:20:01.567Z,79
2018-10-12T13:25:31.051Z,79
2018-10-12T13:31:01.179Z,78
2018-10-12T13:36:30.927Z,78
2018-10-12T13:42:01.064Z,78
2018-10-12T13:47:31.572Z,78
2018-10-12T13:53:00.689Z,78
2018-10-12T13:58:34.878Z,78
2018-10-12T14:03:59.713Z,78
2018-10-12T14:09:29.817Z,78
2018-10-12T14:15:00.190Z,78
2018-10-12T14:20:29.130Z,77
2018-10-12T14:25:58.207Z,77
2018-10-12T14:31:32.618Z,77
2018-10-12T14:36:57.687Z,77
2018-10-12T14:42:27.578Z,77
2018-10-12T14:48:01.708Z,77
2018-10-12T14:53:25.925Z,78
2018-10-12T14:58:54.945Z,78
2018-10-12T15:04:25.316Z,78
2018-10-12T15:09:54.688Z,78
2018-10-12T15:15:28.467Z,78
2018-10-12T15:20:53.279Z,79
2018-10-12T15:26:22.548Z,79
2018-10-12T15:31:51.376Z,79
2018-10-12T15:37:25.429Z,79
2018-10-12T15:42:50.516Z,80
2018-10-12T15:48:25.711Z,80
2018-10-12T15:53:50.433Z,80
2018-10-12T15:59:20.465Z,80
2018-10-12T16:04:50.414Z,81
2018-10-12T16:10:19.382Z,81
2018-10-12T16:15:54.343Z,81
2018-10-12T16:21:18.239Z,81
2018-10-12T16:26:48.172Z,81
2018-10-12T16:32:22.109Z,82
2018-10-12T16:37:45.954Z,82
2018-10-12T16:43:15.171Z,82
2018-10-12T16:48:44.143Z,82
2018-10-12T16:54:18.647Z,82
2018-10-12T16:59:43.442Z,82
2018-10-12T17:05:12.664Z,82
2018-10-12T17:10:41.141Z,82
2018-10-12T17:16:11.391Z,82
2018-10-12T17:21:38.820Z,82
2018-10-12T17:27:08.871Z,82
2018-10-12T17:32:37.464Z,82
2018-10-12T17:38:06.562Z,82
2018-10-12T17:43:40.135Z,83
2018-10-12T17:49:04.194Z,83
2018-10-12T17:54:38.738Z,83
2018-10-12T18:00:03.617Z,83
2018-10-12T18:05:33.740Z,83
2018-10-12T18:11:02.184Z,83
2018-10-12T18:16:36.996Z,83
2018-10-12T18:22:01.860Z,83
2018-10-12T18:27:31.859Z,83
2018-10-12T18:33:00.459Z,83
2018-10-12T18:38:30.210Z,83
2018-10-12T18:44:05.129Z,83
2018-10-12T18:49:34.019Z,83
2018-10-12T18:54:57.531Z,83
2018-10-12T19:00:27.574Z,83
2018-10-12T19:05:57.070Z,83
2018-10-12T19:11:25.879Z,84
2018-10-12T19:16:59.627Z,84
2018-10-12T19:22:23.654Z,84
2018-10-12T19:27:52.327Z,84
2018-10-12T19:33:25.911Z,84
2018-10-12T19:38:51.031Z,84
2018-10-12T19:44:20.391Z,84
2018-10-12T19:49:49.157Z,84
2018-10-12T19:55:19.184Z,84
2018-10-12T20:00:48.986Z,84
2018-10-12T20:06:17.409Z,84
2018-10-12T20:11:46.181Z,84
2018-10-12T20:17:14.829Z,84
2018-10-12T20:22:48.600Z,84
2018-10-12T20:28:17.594Z,84
2018-10-12T20:33:41.021Z,84
2018-10-12T20:33:41.450Z,84
2018-10-12T20:39:16.151Z,84
2018-10-12T20:44:39.706Z,84
2018-10-12T20:50:09.218Z,84
2018-10-12T20:50:09.865Z,84
2018-10-12T20:55:38.937Z,84
2018-10-12T21:01:07.598Z,84
2018-10-12T21:06:36.569Z,84
2018-10-12T21:12:05.023Z,84
2018-10-12T21:17:33.761Z,84
2018-10-12T21:17:34.259Z,84
2018-10-12T21:23:02.574Z,84
2018-10-12T21:28:31.895Z,84
2018-10-12T21:28:36.474Z,84
2018-10-12T21:34:01.303Z,85
2018-10-12T21:39:29.623Z,85
2018-10-12T21:44:59.619Z,85
2018-10-12T21:50:29.359Z,85
2018-10-12T21:55:58.046Z,85
2018-10-12T22:01:27.818Z,85
2018-10-12T22:06:57.337Z,85
2018-10-12T22:12:31.781Z,85
2018-10-12T22:17:54.752Z,85
2018-10-12T22:23:28.783Z,84
2018-10-12T22:28:53.258Z,84
2018-10-12T22:34:22.041Z,84
2018-10-12T22:39:50.818Z,84
2018-10-12T22:45:19.630Z,84
2018-10-12T22:50:49.706Z,85
2018-10-12T22:56:19.237Z,85
2018-10-12T23:01:48.008Z,85
2018-10-12T23:07:17.079Z,85
2018-10-12T23:12:46.663Z,85
2018-10-12T23:18:16.536Z,85
2018-10-12T23:23:50.092Z,85
2018-10-12T23:29:18.897Z,85
2018-10-12T23:34:43.917Z,85
2018-10-12T23:40:13.435Z,85
2018-10-12T23:45:42.686Z,85
2018-10-12T23:51:16.290Z,85
2018-10-12T23:56:40.867Z,85
